Time;durP1;ratioP1;P1;durP2;ratioP2;P2;SDS_P1;SDS_P2;PMS_P1;PMS_P2;Temp;Humidity;BMP_temperature;BMP_pressure;BME280_temperature;BME280_humidity;BME280_pressure;Samples;Min_cycle;Max_cycle;Signal;HPM_P1;HPM_P2
2021/03/04 00:00:22;;;;;;;687.93;99.03;;;6.20;89.60;;;;;;5095020;28;20114;-80
2021/03/04 00:02:48;;;;;;;524.50;102.13;;;6.30;90.00;;;;;;5094549;28;20119;-80
2021/03/04 00:05:14;;;;;;;372.13;100.40;;;6.40;88.60;;;;;;5096246;28;20377;-80
2021/03/04 00:07:40;;;;;;;354.93;101.40;;;6.30;88.40;;;;;;5096061;28;20035;-80
2021/03/04 00:10:07;;;;;;;276.20;96.67;;;6.60;88.20;;;;;;5095811;28;20028;-80
2021/03/04 00:12:33;;;;;;;504.63;99.03;;;6.80;87.70;;;;;;5096071;28;20077;-80
2021/03/04 00:14:58;;;;;;;486.10;98.90;;;6.80;87.00;;;;;;5096207;28;20028;-80
2021/03/04 00:17:24;;;;;;;545.13;105.23;;;6.60;87.40;;;;;;5094868;28;20064;-80
2021/03/04 00:19:49;;;;;;;746.27;112.53;;;6.80;87.30;;;;;;5094354;28;20032;-80
2021/03/04 00:22:15;;;;;;;670.10;103.27;;;7.00;86.80;;;;;;5094571;28;20036;-80
2021/03/04 00:24:41;;;;;;;615.57;99.03;;;7.00;86.00;;;;;;5095795;28;20026;-80
2021/03/04 00:27:06;;;;;;;389.60;89.50;;;6.90;86.30;;;;;;5095602;28;20039;-80
2021/03/04 00:29:32;;;;;;;603.80;83.20;;;6.60;88.00;;;;;;5094567;28;20118;-80
2021/03/04 00:31:58;;;;;;;578.60;99.03;;;6.60;87.20;;;;;;5095077;28;20436;-80
2021/03/04 00:34:23;;;;;;;356.03;90.60;;;6.60;88.00;;;;;;5095948;28;20107;-80
2021/03/04 00:36:49;;;;;;;548.17;97.30;;;6.80;87.80;;;;;;5095461;28;20134;-80
2021/03/04 00:39:15;;;;;;;416.30;93.10;;;6.60;87.00;;;;;;5095786;28;20036;-80
2021/03/04 00:41:40;;;;;;;634.27;100.20;;;6.50;88.50;;;;;;5095316;28;20047;-80
2021/03/04 00:44:06;;;;;;;460.10;95.80;;;6.60;88.50;;;;;;5095324;28;20028;-80
2021/03/04 00:46:33;;;;;;;490.67;97.30;;;6.60;88.30;;;;;;5093765;28;20488;-79
2021/03/04 00:48:59;;;;;;;399.07;92.40;;;6.80;86.90;;;;;;5095040;28;20044;-80
2021/03/04 00:51:24;;;;;;;444.73;90.93;;;7.00;86.00;;;;;;5095468;28;20039;-80
2021/03/04 00:53:50;;;;;;;389.83;96.40;;;7.10;85.40;;;;;;5094858;28;20034;-80
2021/03/04 00:56:15;;;;;;;252.83;91.70;;;6.90;84.90;;;;;;5095074;28;20488;-80
2021/03/04 00:58:41;;;;;;;480.77;91.23;;;7.10;85.50;;;;;;5094822;28;20036;-80
2021/03/04 01:01:07;;;;;;;494.90;94.60;;;7.10;84.50;;;;;;5094739;28;20541;-80
2021/03/04 01:03:32;;;;;;;405.57;92.63;;;7.20;84.80;;;;;;5094658;28;20536;-80
2021/03/04 01:05:58;;;;;;;336.90;91.53;;;7.40;84.70;;;;;;5095090;28;20054;-80
2021/03/04 01:08:23;;;;;;;307.17;91.63;;;7.50;84.10;;;;;;5094666;28;20070;-80
2021/03/04 01:10:49;;;;;;;289.30;91.87;;;7.70;83.50;;;;;;5095120;28;20024;-80
2021/03/04 01:13:15;;;;;;;280.03;88.93;;;7.80;82.90;;;;;;5094708;28;20372;-80
2021/03/04 01:15:40;;;;;;;335.97;87.17;;;7.90;82.70;;;;;;5095402;28;20036;-80
2021/03/04 01:18:06;;;;;;;292.67;84.27;;;7.90;82.80;;;;;;5094694;28;20028;-80
2021/03/04 01:20:32;;;;;;;483.67;87.13;;;7.80;83.00;;;;;;5094792;28;20103;-80
2021/03/04 01:22:58;;;;;;;485.73;94.17;;;7.50;82.70;;;;;;5094305;28;20058;-80
2021/03/04 01:25:23;;;;;;;460.70;85.33;;;7.40;83.80;;;;;;5093373;28;20508;-80
2021/03/04 01:27:51;;;;;;;386.37;88.73;;;7.20;84.80;;;;;;5094512;28;20469;-80
2021/03/04 01:30:18;;;;;;;322.30;88.30;;;7.00;85.60;;;;;;5094667;28;20449;-80
2021/03/04 01:32:43;;;;;;;250.47;83.30;;;6.70;86.80;;;;;;5094372;28;20183;-80
2021/03/04 01:35:09;;;;;;;403.40;84.80;;;6.50;88.10;;;;;;5094573;28;20118;-80
2021/03/04 01:37:35;;;;;;;434.93;90.40;;;6.30;89.80;;;;;;5092939;28;20032;-80
2021/03/04 01:40:03;;;;;;;551.23;96.70;;;6.30;90.40;;;;;;5094318;28;20032;-80
2021/03/04 01:42:29;;;;;;;372.63;92.03;;;6.20;90.00;;;;;;5093883;28;20032;-80
2021/03/04 01:44:55;;;;;;;308.77;95.37;;;6.40;88.80;;;;;;5093040;28;20074;-80
2021/03/04 01:47:20;;;;;;;429.63;93.60;;;6.50;88.80;;;;;;5094380;28;20024;-80
2021/03/04 01:49:46;;;;;;;383.17;83.90;;;6.50;89.10;;;;;;5093944;28;20126;-80
2021/03/04 01:52:12;;;;;;;291.33;84.70;;;6.30;89.40;;;;;;5094227;28;20070;-80
2021/03/04 01:54:38;;;;;;;210.97;74.90;;;6.40;89.80;;;;;;5092908;28;20468;-80
2021/03/04 01:57:03;;;;;;;198.60;72.27;;;6.30;89.90;;;;;;5094101;28;20066;-80
2021/03/04 01:59:29;;;;;;;224.57;79.67;;;6.30;89.40;;;;;;5093982;28;20043;-80
2021/03/04 02:01:55;;;;;;;204.17;76.43;;;6.30;89.30;;;;;;5092542;28;20067;-80
2021/03/04 02:04:20;;;;;;;174.93;73.73;;;6.30;89.70;;;;;;5092597;28;20024;-80
2021/03/04 02:07:01;;;;;;;185.07;77.17;;;6.40;89.60;;;;;;5094056;28;20366;-80
2021/03/04 02:09:26;;;;;;;187.05;74.15;;;6.60;88.60;;;;;;5094138;28;20373;-80
2021/03/04 02:11:54;;;;;;;159.53;67.47;;;6.50;88.00;;;;;;5093793;28;20039;-80
2021/03/04 02:14:32;;;;;;;183.43;74.03;;;6.50;89.00;;;;;;5094057;28;20024;-80
2021/03/04 02:17:04;;;;;;;164.57;70.17;;;6.50;88.70;;;;;;5075878;28;20024;-80
2021/03/04 02:19:57;;;;;;;160.43;67.20;;;6.40;89.30;;;;;;5092223;28;20047;-79
2021/03/04 02:22:46;;;;;;;142.73;64.37;;;6.10;90.10;;;;;;5093414;28;20043;-80
2021/03/04 02:25:39;;;;;;;164.80;67.93;;;6.30;89.50;;;;;;5078727;28;20461;-80
2021/03/04 02:28:05;;;;;;;108.10;53.67;;;6.30;89.50;;;;;;5093103;28;20020;-80
2021/03/04 02:30:33;;;;;;;101.47;52.57;;;6.10;90.10;;;;;;5092241;28;20025;-80
2021/03/04 02:33:02;;;;;;;108.43;50.20;;;6.00;90.60;;;;;;5092782;28;20059;-80
2021/03/04 02:35:31;;;;;;;107.60;50.50;;;5.80;91.10;;;;;;5093027;28;20403;-80
2021/03/04 02:38:02;;;;;;;111.70;53.67;;;5.60;91.60;;;;;;5093681;28;20028;-80
2021/03/04 02:40:30;;;;;;;111.65;53.08;;;5.70;91.60;;;;;;5093680;28;20024;-80
2021/03/04 02:42:55;;;;;;;116.27;53.73;;;5.80;91.60;;;;;;5092256;28;20025;-80
2021/03/04 02:45:22;;;;;;;138.77;58.70;;;5.80;91.30;;;;;;5092480;28;20022;-80
2021/03/04 02:47:48;;;;;;;147.43;60.10;;;6.00;90.90;;;;;;5092447;28;20020;-80
2021/03/04 02:50:14;;;;;;;158.23;62.27;;;6.10;90.80;;;;;;5092551;28;20040;-80
2021/03/04 02:52:39;;;;;;;183.13;65.43;;;6.20;90.70;;;;;;5092353;28;20055;-80
2021/03/04 02:55:07;;;;;;;318.80;79.73;;;6.40;90.30;;;;;;5075506;28;20060;-80
2021/03/04 02:57:34;;;;;;;466.80;79.00;;;6.30;90.10;;;;;;5092386;28;20419;-80
2021/03/04 02:59:59;;;;;;;598.43;85.40;;;6.30;90.30;;;;;;5092287;28;20112;-80
2021/03/04 03:02:25;;;;;;;711.07;92.30;;;6.20;90.80;;;;;;5091931;28;20111;-80
2021/03/04 03:04:51;;;;;;;581.20;89.17;;;6.40;90.70;;;;;;5091993;28;20391;-80
2021/03/04 03:07:16;;;;;;;706.90;102.83;;;6.40;90.50;;;;;;5091913;28;20103;-80
2021/03/04 03:09:44;;;;;;;696.37;103.67;;;6.40;90.40;;;;;;5091878;28;20036;-80
2021/03/04 03:12:13;;;;;;;666.23;110.10;;;6.40;90.40;;;;;;5075246;28;20376;-80
2021/03/04 03:14:38;;;;;;;634.83;111.57;;;6.30;90.70;;;;;;5092210;28;20473;-80
2021/03/04 03:17:05;;;;;;;620.90;111.07;;;6.30;90.80;;;;;;5093559;28;20042;-80
2021/03/04 03:19:31;;;;;;;432.03;103.90;;;6.10;91.10;;;;;;5093180;28;20527;-80
2021/03/04 03:21:57;;;;;;;425.20;104.17;;;6.10;91.10;;;;;;5093427;28;20032;-80
2021/03/04 03:24:22;;;;;;;425.70;102.33;;;6.10;91.20;;;;;;5093296;28;20032;-80
2021/03/04 03:26:48;;;;;;;418.57;103.90;;;6.10;91.40;;;;;;5093621;28;20119;-80
2021/03/04 03:29:13;;;;;;;385.60;100.87;;;6.10;91.00;;;;;;5092021;28;20028;-80
2021/03/04 03:31:40;;;;;;;416.83;102.37;;;6.10;90.80;;;;;;5096394;28;20028;-80
2021/03/04 03:34:06;;;;;;;427.43;103.77;;;6.00;91.00;;;;;;5095249;28;20483;-80
2021/03/04 03:36:34;;;;;;;435.40;100.30;;;6.00;91.20;;;;;;5095421;28;20024;-80
2021/03/04 03:39:00;;;;;;;429.93;105.93;;;6.10;91.00;;;;;;5096614;28;20024;-80
2021/03/04 03:41:25;;;;;;;462.53;107.00;;;6.10;91.00;;;;;;5078358;28;20115;-80
2021/03/04 03:43:51;;;;;;;419.17;104.00;;;6.10;91.10;;;;;;5095342;28;20032;-80
2021/03/04 03:46:16;;;;;;;373.80;97.40;;;6.30;91.20;;;;;;5094989;28;20035;-80
2021/03/04 03:48:42;;;;;;;378.00;98.07;;;6.60;90.80;;;;;;5096223;28;20025;-81
2021/03/04 03:51:08;;;;;;;356.70;97.03;;;6.50;89.60;;;;;;5095461;28;20031;-80
2021/03/04 03:53:33;;;;;;;352.43;93.70;;;6.50;89.40;;;;;;5078253;28;20043;-80
2021/03/04 03:55:59;;;;;;;356.90;94.53;;;6.60;89.40;;;;;;5095167;28;20103;-80
2021/03/04 03:58:26;;;;;;;378.43;96.03;;;6.60;89.20;;;;;;5095119;28;20024;-80
2021/03/04 04:00:57;;;;;;;408.17;97.00;;;6.50;89.30;;;;;;5096366;28;20370;-80
2021/03/04 04:03:23;;;;;;;406.50;95.30;;;6.50;90.00;;;;;;5094979;28;20496;-80
2021/03/04 04:05:49;;;;;;;392.63;92.70;;;6.40;90.50;;;;;;5094883;28;20027;-80
2021/03/04 04:08:15;;;;;;;439.00;97.90;;;6.30;90.70;;;;;;5077952;28;20024;-80
2021/03/04 04:10:40;;;;;;;407.20;92.47;;;6.30;90.80;;;;;;5094842;28;20030;-80
2021/03/04 04:13:06;;;;;;;425.43;93.23;;;6.30;90.80;;;;;;5095977;28;20028;-80
2021/03/04 04:15:32;;;;;;;426.00;93.00;;;6.30;90.80;;;;;;5094872;28;20380;-80
2021/03/04 04:17:59;;;;;;;364.80;89.80;;;6.40;90.80;;;;;;5095896;28;20052;-80
2021/03/04 04:20:24;;;;;;;415.33;94.00;;;6.50;90.80;;;;;;5095585;28;20034;-80
2021/03/04 04:22:51;;;;;;;466.30;97.57;;;6.80;90.40;;;;;;5095388;28;20043;-80
2021/03/04 04:25:20;;;;;;;420.90;92.03;;;7.10;89.30;;;;;;5094264;28;20020;-80
2021/03/04 04:27:45;;;;;;;493.40;92.33;;;7.30;88.00;;;;;;5094463;28;20024;-80
2021/03/04 04:30:11;;;;;;;585.10;98.27;;;7.30;87.40;;;;;;5095868;28;20089;-80
2021/03/04 04:32:37;;;;;;;451.63;95.73;;;7.30;87.10;;;;;;5095750;28;20039;-80
2021/03/04 04:35:03;;;;;;;512.30;100.03;;;7.20;87.00;;;;;;5094195;28;20024;-80
2021/03/04 04:37:29;;;;;;;517.07;98.17;;;7.30;86.80;;;;;;5094242;28;20036;-80
2021/03/04 04:39:54;;;;;;;418.63;87.73;;;7.30;86.10;;;;;;5094252;28;20028;-80
2021/03/04 04:42:20;;;;;;;437.93;89.87;;;7.20;86.00;;;;;;5094862;28;20114;-80
2021/03/04 04:44:45;;;;;;;386.73;87.50;;;7.10;86.70;;;;;;5093899;28;20457;-80
2021/03/04 04:47:11;;;;;;;444.27;88.17;;;7.20;87.20;;;;;;5095079;28;20039;-80
2021/03/04 04:49:36;;;;;;;435.70;89.77;;;7.30;87.10;;;;;;5094845;28;20590;-80
2021/03/04 04:52:02;;;;;;;385.90;84.37;;;7.30;86.40;;;;;;5095401;28;20068;-80
2021/03/04 04:54:28;;;;;;;345.30;81.77;;;7.30;86.60;;;;;;5094350;28;20062;-80
2021/03/04 04:56:53;;;;;;;345.93;87.33;;;7.30;86.00;;;;;;5093884;28;20024;-80
2021/03/04 04:59:19;;;;;;;360.30;90.27;;;7.30;85.10;;;;;;5095238;28;20132;-80
2021/03/04 05:01:45;;;;;;;540.67;96.87;;;7.50;85.00;;;;;;5093486;28;20032;-80
2021/03/04 05:04:10;;;;;;;551.17;103.27;;;7.50;85.00;;;;;;5095025;28;20099;-80
2021/03/04 05:06:36;;;;;;;676.57;106.77;;;7.30;85.40;;;;;;5095029;28;20453;-80
2021/03/04 05:09:01;;;;;;;688.17;108.57;;;6.90;87.40;;;;;;5094585;28;20112;-80
2021/03/04 05:11:27;;;;;;;464.43;103.97;;;6.90;88.30;;;;;;5095139;28;20031;-80
2021/03/04 05:13:52;;;;;;;455.50;102.67;;;6.70;88.60;;;;;;5094497;28;20028;-80
2021/03/04 05:16:18;;;;;;;452.13;96.93;;;6.70;89.40;;;;;;5094975;28;20097;-80
2021/03/04 05:18:44;;;;;;;390.80;90.37;;;6.60;89.50;;;;;;5094610;28;21043;-80
2021/03/04 05:21:09;;;;;;;430.77;94.43;;;6.80;89.40;;;;;;5095176;28;20358;-82
2021/03/04 05:23:35;;;;;;;488.23;95.23;;;6.80;88.70;;;;;;5093390;28;20484;-82
2021/03/04 05:26:01;;;;;;;403.40;97.27;;;6.80;88.80;;;;;;5094613;28;20043;-82
2021/03/04 05:28:26;;;;;;;492.13;103.20;;;6.90;88.50;;;;;;5093346;28;20071;-82
2021/03/04 05:30:52;;;;;;;520.33;97.23;;;6.60;89.70;;;;;;5093469;28;20034;-81
2021/03/04 05:33:19;;;;;;;462.03;99.80;;;6.50;90.20;;;;;;5093272;28;20028;-82
2021/03/04 05:35:44;;;;;;;523.20;106.17;;;6.50;90.20;;;;;;5094114;28;20499;-82
2021/03/04 05:38:10;;;;;;;660.77;107.17;;;6.50;90.20;;;;;;5094438;28;20107;-81
2021/03/04 05:40:36;;;;;;;553.57;108.07;;;6.40;90.40;;;;;;5093110;28;20418;-81
2021/03/04 05:43:01;;;;;;;508.33;106.80;;;6.20;90.90;;;;;;5092655;28;20028;-81
2021/03/04 05:45:27;;;;;;;534.53;108.30;;;6.20;91.00;;;;;;5093778;28;20028;-81
2021/03/04 05:47:53;;;;;;;565.67;109.70;;;6.30;90.70;;;;;;5093064;28;20480;-81
2021/03/04 05:50:19;;;;;;;533.23;105.97;;;6.30;90.70;;;;;;5092380;28;20039;-81
2021/03/04 05:52:49;;;;;;;535.10;105.20;;;6.30;90.80;;;;;;5092350;28;20396;-81
2021/03/04 05:55:15;;;;;;;478.43;100.17;;;6.40;90.70;;;;;;5094036;28;20016;-81
2021/03/04 05:57:40;;;;;;;550.80;107.93;;;6.20;91.00;;;;;;5092824;28;20052;-81
2021/03/04 06:00:07;;;;;;;523.70;110.53;;;6.10;91.40;;;;;;5092871;28;20058;-81
2021/03/04 06:02:33;;;;;;;534.67;105.80;;;6.00;91.40;;;;;;5093915;28;20028;-81
2021/03/04 06:04:58;;;;;;;604.87;114.10;;;6.00;91.70;;;;;;5092462;28;20500;-81
2021/03/04 06:07:24;;;;;;;684.63;105.37;;;6.00;91.80;;;;;;5093963;28;20031;-82
2021/03/04 06:09:51;;;;;;;926.03;114.90;;;6.00;91.90;;;;;;5093612;28;20047;-82
2021/03/04 06:12:17;;;;;;;638.33;112.70;;;6.10;91.80;;;;;;5092436;28;20074;-82
2021/03/04 06:14:42;;;;;;;721.43;117.00;;;6.10;91.50;;;;;;5092606;28;20028;-82
2021/03/04 06:17:12;;;;;;;566.03;110.50;;;6.20;91.40;;;;;;5093883;28;20028;-81
2021/03/04 06:19:38;;;;;;;553.97;108.90;;;6.20;91.40;;;;;;5092886;28;20028;-81
2021/03/04 06:22:04;;;;;;;510.57;105.80;;;6.20;91.20;;;;;;5092563;28;20036;-81
2021/03/04 06:24:29;;;;;;;490.70;105.40;;;6.30;91.30;;;;;;5092565;28;20141;-81
2021/03/04 06:26:55;;;;;;;423.30;101.20;;;6.60;90.70;;;;;;5092177;28;20024;-82
2021/03/04 06:29:22;;;;;;;419.07;100.63;;;6.70;90.20;;;;;;5093870;28;20056;-82
2021/03/04 06:32:06;;;;;;;474.53;104.83;;;6.80;89.70;;;;;;5093788;28;20024;-82
2021/03/04 06:34:32;;;;;;;479.67;107.87;;;7.00;89.00;;;;;;5093967;28;20025;-82
2021/03/04 06:37:03;;;;;;;491.43;110.60;;;6.80;88.30;;;;;;5092496;28;20031;-81
2021/03/04 06:39:47;;;;;;;506.17;109.78;;;7.00;88.50;;;;;;5094057;28;20039;-82
2021/03/04 06:42:13;;;;;;;466.27;103.37;;;6.90;88.60;;;;;;5094103;28;20503;-82
2021/03/04 06:44:43;;;;;;;477.20;108.67;;;7.10;88.70;;;;;;5093879;28;20028;-82
2021/03/04 06:47:09;;;;;;;483.07;107.60;;;6.80;88.90;;;;;;5091084;28;20029;-82
2021/03/04 06:49:39;;;;;;;460.47;108.37;;;6.70;89.50;;;;;;5082123;28;20068;-82
2021/03/04 06:52:05;;;;;;;474.08;108.50;;;6.50;90.30;;;;;;5080772;28;20028;-82
2021/03/04 06:54:31;;;;;;;438.13;106.60;;;6.50;90.20;;;;;;5092074;28;20024;-82
2021/03/04 06:57:07;;;;;;;435.70;103.07;;;6.50;90.10;;;;;;5091928;28;20081;-82
2021/03/04 06:59:42;;;;;;;420.87;96.80;;;6.50;90.20;;;;;;5089841;28;20025;-83
2021/03/04 07:02:08;;;;;;;372.93;90.53;;;6.50;90.50;;;;;;5091169;28;20471;-82
2021/03/04 07:04:33;;;;;;;362.03;94.30;;;6.50;90.40;;;;;;5092342;28;20105;-81
2021/03/04 07:06:59;;;;;;;394.17;97.53;;;6.50;90.40;;;;;;5096999;28;20154;-81
2021/03/04 07:09:25;;;;;;;435.23;103.60;;;6.70;89.60;;;;;;5077988;28;20089;-83
2021/03/04 07:11:50;;;;;;;399.67;100.30;;;6.80;88.80;;;;;;5094131;28;20032;-81
2021/03/04 07:14:16;;;;;;;509.83;105.53;;;6.80;88.60;;;;;;5094011;28;21376;-81
2021/03/04 07:16:45;;;;;;;512.37;106.17;;;6.70;89.70;;;;;;5094018;28;20020;-82
2021/03/04 07:19:16;;;;;;;512.03;102.93;;;6.60;90.20;;;;;;5088388;28;20042;-81
2021/03/04 07:21:48;;;;;;;610.67;101.90;;;6.50;90.50;;;;;;5093558;28;20024;-82
2021/03/04 07:24:14;;;;;;;775.23;106.70;;;6.40;90.90;;;;;;5095537;28;20024;-82
2021/03/04 07:26:40;;;;;;;575.93;96.90;;;6.50;91.10;;;;;;5096336;28;20032;-82
2021/03/04 07:29:09;;;;;;;457.70;97.93;;;6.40;91.10;;;;;;5094839;28;20032;-81
2021/03/04 07:31:37;;;;;;;574.00;105.17;;;6.40;91.40;;;;;;5095117;28;20030;-81
2021/03/04 07:34:03;;;;;;;493.53;101.73;;;6.50;90.70;;;;;;5095220;28;20534;-81
2021/03/04 07:36:29;;;;;;;500.40;98.97;;;6.50;90.50;;;;;;5093646;28;20162;-81
2021/03/04 07:38:58;;;;;;;558.33;101.57;;;6.30;91.00;;;;;;5094363;28;20028;-80
2021/03/04 07:41:40;;;;;;;545.87;96.83;;;6.30;91.10;;;;;;5094915;28;20025;-82
2021/03/04 07:44:07;;;;;;;492.10;100.17;;;6.10;91.50;;;;;;5077708;28;20406;-82
2021/03/04 07:46:43;;;;;;;555.17;99.00;;;6.10;91.70;;;;;;5094590;28;20031;-82
2021/03/04 07:49:09;;;;;;;433.73;95.33;;;6.20;91.70;;;;;;5082651;28;20389;-83
2021/03/04 07:51:46;;;;;;;468.50;96.07;;;6.10;91.70;;;;;;5093730;28;20090;-81
2021/03/04 07:54:13;;;;;;;484.70;101.13;;;6.10;91.60;;;;;;5093568;28;20024;-81
2021/03/04 07:56:39;;;;;;;491.20;98.80;;;6.20;91.50;;;;;;5090139;28;20378;-82
2021/03/04 07:59:14;;;;;;;469.17;102.80;;;6.30;91.20;;;;;;5085487;28;20031;-83
2021/03/04 08:01:54;;;;;;;440.57;97.83;;;6.20;91.00;;;;;;5095841;28;20032;-82
2021/03/04 08:04:23;;;;;;;434.27;95.77;;;6.20;91.20;;;;;;5094557;28;20023;-82
2021/03/04 08:06:55;;;;;;;369.83;90.80;;;6.20;91.40;;;;;;5095766;28;20032;-81
2021/03/04 08:09:24;;;;;;;393.33;90.07;;;6.20;91.10;;;;;;5094952;28;20057;-82
2021/03/04 08:11:50;;;;;;;365.00;84.97;;;6.20;91.00;;;;;;5095164;28;20500;-82
2021/03/04 08:14:16;;;;;;;393.93;87.83;;;6.30;90.80;;;;;;5095499;28;20024;-82
2021/03/04 08:16:42;;;;;;;347.83;83.50;;;6.40;90.80;;;;;;5094594;28;20462;-82
2021/03/04 08:19:07;;;;;;;302.97;77.70;;;6.40;90.70;;;;;;5088498;28;20794;-83
2021/03/04 08:21:41;;;;;;;259.73;69.03;;;6.40;90.60;;;;;;5094750;28;20054;-82
2021/03/04 08:24:08;;;;;;;240.50;67.33;;;6.30;90.50;;;;;;5094335;28;20024;-82
2021/03/04 08:26:36;;;;;;;235.23;63.67;;;6.20;91.10;;;;;;5094028;28;20028;-82
2021/03/04 08:29:05;;;;;;;208.07;60.00;;;6.10;91.30;;;;;;5095401;28;20024;-82
2021/03/04 08:31:32;;;;;;;184.40;55.50;;;6.10;91.50;;;;;;5095233;28;20024;-82
2021/03/04 08:33:58;;;;;;;166.10;53.73;;;6.10;91.40;;;;;;5093862;28;20487;-82
2021/03/04 08:36:23;;;;;;;155.73;51.17;;;6.00;91.50;;;;;;5093699;28;20032;-82
2021/03/04 08:38:49;;;;;;;143.97;50.07;;;5.90;91.70;;;;;;5095497;28;20028;-82
2021/03/04 08:41:24;;;;;;;143.47;46.67;;;5.80;91.90;;;;;;5094768;28;20078;-82
2021/03/04 08:43:51;;;;;;;156.00;49.63;;;5.70;92.10;;;;;;5095100;28;20465;-82
2021/03/04 08:46:18;;;;;;;189.63;53.30;;;5.80;92.20;;;;;;5093754;28;20523;-82
2021/03/04 08:48:45;;;;;;;152.93;48.47;;;6.00;91.80;;;;;;5085217;28;20016;-81
2021/03/04 08:51:11;;;;;;;144.60;47.93;;;6.10;91.30;;;;;;5091173;28;20035;-82
2021/03/04 08:53:37;;;;;;;132.53;45.30;;;6.20;91.20;;;;;;5075344;28;20131;-81
2021/03/04 08:56:04;;;;;;;125.40;41.03;;;6.10;91.00;;;;;;5094774;28;20059;-81
2021/03/04 08:58:31;;;;;;;112.40;38.97;;;6.20;90.80;;;;;;5094486;28;20020;-81
2021/03/04 09:01:00;;;;;;;128.00;40.40;;;6.10;90.90;;;;;;5093500;28;20046;-81
2021/03/04 09:03:27;;;;;;;126.03;38.20;;;6.10;91.30;;;;;;5094531;28;20127;-81
2021/03/04 09:06:09;;;;;;;132.57;40.77;;;6.10;91.00;;;;;;5093221;28;20032;-81
2021/03/04 09:08:36;;;;;;;129.00;39.07;;;6.20;91.10;;;;;;5078986;28;20105;-80
2021/03/04 09:11:02;;;;;;;110.43;36.80;;;6.20;91.10;;;;;;5092929;28;20052;-81
2021/03/04 09:13:28;;;;;;;108.67;34.97;;;6.10;90.90;;;;;;5092618;28;20120;-80
2021/03/04 09:15:56;;;;;;;108.37;33.90;;;6.10;91.10;;;;;;5096124;28;20097;-81
2021/03/04 09:18:25;;;;;;;115.90;35.33;;;6.00;91.20;;;;;;5088682;28;20728;-82
2021/03/04 09:20:51;;;;;;;116.43;35.10;;;5.90;91.30;;;;;;5086985;28;20036;-81
2021/03/04 09:23:17;;;;;;;123.83;36.43;;;6.00;91.30;;;;;;5092957;28;20481;-81
2021/03/04 09:25:43;;;;;;;123.63;37.03;;;6.20;91.10;;;;;;5094323;28;20089;-81
2021/03/04 09:28:12;;;;;;;121.17;40.33;;;6.30;90.80;;;;;;5092202;28;20461;-80
2021/03/04 09:30:37;;;;;;;134.20;41.33;;;6.30;90.30;;;;;;5094165;28;20028;-81
2021/03/04 09:33:03;;;;;;;131.93;39.50;;;6.20;90.60;;;;;;5093785;28;20046;-81
2021/03/04 09:35:28;;;;;;;144.07;42.63;;;6.10;90.60;;;;;;5093623;28;20424;-82
2021/03/04 09:38:04;;;;;;;129.83;43.43;;;6.10;90.60;;;;;;5092504;28;20052;-80
2021/03/04 09:40:30;;;;;;;135.53;45.37;;;6.10;90.60;;;;;;5092293;28;20028;-80
2021/03/04 09:42:56;;;;;;;149.33;44.03;;;6.10;90.60;;;;;;5092704;28;20036;-80
2021/03/04 09:45:22;;;;;;;144.00;44.53;;;6.10;90.60;;;;;;5092207;28;20111;-81
2021/03/04 09:47:48;;;;;;;125.60;43.33;;;6.40;90.70;;;;;;5093160;28;20039;-81
2021/03/04 09:50:26;;;;;;;119.93;42.03;;;6.30;90.10;;;;;;5081966;28;20040;-81
2021/03/04 09:53:04;;;;;;;123.63;42.33;;;6.30;89.90;;;;;;5091640;28;20544;-81
2021/03/04 09:55:39;;;;;;;133.60;45.47;;;6.30;90.30;;;;;;5090770;28;20027;-81
2021/03/04 09:58:11;;;;;;;131.70;44.77;;;6.30;90.10;;;;;;5092550;28;20070;-81
2021/03/04 10:00:37;;;;;;;133.60;45.10;;;6.40;89.60;;;;;;5092632;28;20016;-80
2021/03/04 10:03:07;;;;;;;137.77;48.03;;;6.30;90.00;;;;;;5092799;28;20050;-80
2021/03/04 10:05:32;;;;;;;110.77;42.30;;;6.30;90.00;;;;;;5092273;28;20418;-81
2021/03/04 10:08:01;;;;;;;117.93;43.20;;;6.20;89.80;;;;;;5093300;28;20035;-81
2021/03/04 10:10:28;;;;;;;127.17;47.07;;;6.30;90.00;;;;;;5066456;28;20029;-81
2021/03/04 10:12:56;;;;;;;117.90;44.83;;;6.30;90.10;;;;;;5065716;28;20028;-81
2021/03/04 10:15:29;;;;;;;124.23;45.60;;;6.40;90.00;;;;;;5091075;28;20380;-81
2021/03/04 10:18:27;;;;;;;126.37;46.70;;;6.40;89.90;;;;;;5091244;28;20047;-82
2021/03/04 10:20:53;;;;;;;122.20;43.17;;;6.50;89.40;;;;;;5067636;28;20063;-82
2021/03/04 10:23:19;;;;;;;124.83;46.93;;;6.40;89.50;;;;;;5092856;28;20460;-82
2021/03/04 10:25:44;;;;;;;106.30;44.70;;;6.50;89.30;;;;;;5092772;28;20028;-82
2021/03/04 10:28:10;;;;;;;127.17;46.17;;;6.50;89.00;;;;;;5093478;28;20516;-82
2021/03/04 10:30:36;;;;;;;119.70;47.13;;;6.60;89.30;;;;;;5092002;28;20032;-83
2021/03/04 10:33:03;;;;;;;126.20;47.73;;;6.60;88.30;;;;;;5089185;28;20032;-82
2021/03/04 10:35:29;;;;;;;120.37;47.53;;;6.60;88.70;;;;;;5092303;28;20534;-83
2021/03/04 10:37:55;;;;;;;121.77;45.70;;;6.60;88.30;;;;;;5092905;28;20032;-82
2021/03/04 10:40:20;;;;;;;147.90;53.17;;;6.50;89.10;;;;;;5095102;28;20020;-83
2021/03/04 10:42:46;;;;;;;138.97;52.20;;;6.50;89.70;;;;;;5097326;28;20032;-82
2021/03/04 10:45:13;;;;;;;136.90;50.30;;;6.50;89.70;;;;;;5097232;28;20035;-82
2021/03/04 10:47:39;;;;;;;130.07;49.87;;;6.60;89.20;;;;;;5093756;28;20468;-82
2021/03/04 10:50:06;;;;;;;116.10;48.23;;;6.80;88.50;;;;;;5090759;28;20484;-82
2021/03/04 10:52:31;;;;;;;112.67;46.00;;;6.90;87.80;;;;;;5095004;28;20097;-82
2021/03/04 10:54:57;;;;;;;109.73;46.17;;;6.70;88.60;;;;;;5096656;28;20468;-81
2021/03/04 10:57:23;;;;;;;118.37;48.07;;;6.50;89.40;;;;;;5095121;28;20111;-83
2021/03/04 10:59:49;;;;;;;123.20;51.90;;;6.60;89.40;;;;;;5095998;28;20028;-80
2021/03/04 11:02:15;;;;;;;116.97;49.80;;;6.70;88.30;;;;;;5095210;28;20055;-81
2021/03/04 11:04:40;;;;;;;117.43;50.50;;;6.80;88.10;;;;;;5093536;28;20370;-81
2021/03/04 11:07:06;;;;;;;130.80;52.10;;;6.70;87.80;;;;;;5095953;28;20059;-80
2021/03/04 11:09:31;;;;;;;131.83;53.00;;;6.70;88.00;;;;;;5097058;28;20461;-80
2021/03/04 11:11:57;;;;;;;142.17;52.97;;;6.80;87.60;;;;;;5097032;28;20031;-80
2021/03/04 11:14:22;;;;;;;114.17;48.47;;;6.90;87.40;;;;;;5096720;28;20051;-80
2021/03/04 11:16:48;;;;;;;119.93;46.57;;;6.90;87.20;;;;;;5096532;28;20107;-80
2021/03/04 11:19:13;;;;;;;115.10;47.57;;;6.70;87.70;;;;;;5095343;28;20408;-80
2021/03/04 11:21:40;;;;;;;112.53;48.13;;;6.60;89.70;;;;;;5096663;28;20045;-80
2021/03/04 11:24:07;;;;;;;118.60;47.40;;;6.60;88.80;;;;;;5095476;28;20384;-80
2021/03/04 11:26:32;;;;;;;123.67;48.10;;;6.70;89.20;;;;;;5096341;28;20377;-81
2021/03/04 11:28:58;;;;;;;125.03;49.17;;;6.80;88.00;;;;;;5096217;28;20025;-81
2021/03/04 11:31:23;;;;;;;132.80;50.23;;;6.90;88.50;;;;;;5092690;28;20044;-81
2021/03/04 11:33:49;;;;;;;116.10;52.20;;;6.90;87.60;;;;;;5096433;28;20385;-80
2021/03/04 11:36:15;;;;;;;118.67;50.33;;;6.60;88.00;;;;;;5090220;28;20060;-82
2021/03/04 11:38:40;;;;;;;130.00;51.03;;;6.60;88.50;;;;;;5087062;28;20027;-81
2021/03/04 11:41:06;;;;;;;131.80;54.33;;;6.60;89.30;;;;;;5095820;28;20424;-80
2021/03/04 11:43:31;;;;;;;145.50;56.60;;;6.60;88.60;;;;;;5094115;28;20039;-81
2021/03/04 11:45:57;;;;;;;141.33;56.13;;;6.60;88.80;;;;;;5095523;28;20024;-81
2021/03/04 11:48:23;;;;;;;175.37;60.47;;;6.50;89.00;;;;;;5096005;28;20036;-81
2021/03/04 11:50:48;;;;;;;161.40;61.27;;;6.60;90.00;;;;;;5092317;28;20036;-81
2021/03/04 11:53:14;;;;;;;155.50;61.03;;;6.60;89.00;;;;;;5094845;28;20032;-81
2021/03/04 11:55:39;;;;;;;152.37;59.60;;;6.60;88.70;;;;;;5095973;28;20089;-81
2021/03/04 11:58:05;;;;;;;140.50;60.73;;;6.60;89.00;;;;;;5095949;28;20381;-81
2021/03/04 12:00:31;;;;;;;130.87;59.47;;;6.60;88.60;;;;;;5094571;28;20030;-80
2021/03/04 12:02:56;;;;;;;125.97;57.63;;;6.50;89.30;;;;;;5094560;28;20032;-81
2021/03/04 12:05:22;;;;;;;136.43;59.93;;;6.40;88.80;;;;;;5093248;28;20257;-80
2021/03/04 12:07:48;;;;;;;153.57;63.80;;;6.50;88.70;;;;;;5094189;28;20039;-81
2021/03/04 12:10:15;;;;;;;129.33;62.33;;;6.60;88.70;;;;;;5095703;28;20031;-80
2021/03/04 12:12:40;;;;;;;140.83;62.87;;;6.60;87.20;;;;;;5094170;28;20032;-80
2021/03/04 12:15:06;;;;;;;136.73;66.27;;;6.50;87.90;;;;;;5095611;28;20353;-80
2021/03/04 12:17:32;;;;;;;143.07;67.07;;;6.50;89.00;;;;;;5095594;28;20357;-80
2021/03/04 12:19:58;;;;;;;126.50;62.27;;;6.50;88.70;;;;;;5095523;28;20035;-80
2021/03/04 12:22:23;;;;;;;125.23;61.73;;;6.60;88.50;;;;;;5095299;28;20494;-80
2021/03/04 12:24:49;;;;;;;131.03;62.37;;;6.50;89.10;;;;;;5093091;28;20052;-81